createdAt,value
2023-04-07T00:01:40.420Z,7.70
2023-04-07T00:04:07.953Z,7.80
2023-04-07T00:06:34.897Z,7.80
2023-04-07T00:09:02.399Z,7.80
2023-04-07T00:11:29.075Z,7.80
2023-04-07T00:13:56.465Z,7.90
2023-04-07T00:16:23.650Z,7.90
2023-04-07T00:18:50.928Z,7.90
2023-04-07T00:21:17.545Z,8.00
2023-04-07T00:23:45.195Z,8.00
2023-04-07T00:26:11.771Z,8.00
2023-04-07T00:28:41.036Z,8.10
2023-04-07T00:31:07.673Z,8.00
2023-04-07T00:33:35.000Z,8.10
2023-04-07T00:36:01.654Z,8.10
2023-04-07T00:38:28.951Z,8.10
2023-04-07T00:40:59.692Z,8.10
2023-04-07T00:43:27.676Z,8.10
2023-04-07T00:45:54.860Z,8.20
2023-04-07T00:48:22.465Z,8.10
2023-04-07T00:50:49.173Z,8.10
2023-04-07T00:53:16.920Z,8.10
2023-04-07T00:55:43.817Z,8.10
2023-04-07T00:58:11.228Z,8.10
2023-04-07T01:00:51.513Z,8.10
2023-04-07T01:03:33.922Z,8.10
2023-04-07T01:06:06.634Z,8.10
2023-04-07T01:08:50.168Z,8.10
2023-04-07T01:11:28.619Z,8.10
2023-04-07T01:13:59.972Z,8.10
2023-04-07T01:16:53.085Z,8.00
2023-04-07T01:19:43.034Z,8.10
2023-04-07T01:22:17.202Z,8.10
2023-04-07T01:25:22.457Z,8.00
2023-04-07T01:28:02.317Z,8.10
2023-04-07T01:30:33.054Z,8.00
2023-04-07T01:33:02.175Z,8.10
2023-04-07T01:35:32.973Z,8.10
2023-04-07T01:38:01.408Z,8.00
2023-04-07T01:40:29.520Z,8.10
2023-04-07T01:43:01.368Z,8.10
2023-04-07T01:45:29.348Z,8.10
2023-04-07T01:47:56.543Z,8.10
2023-04-07T01:50:24.528Z,8.00
2023-04-07T01:52:52.056Z,8.10
2023-04-07T01:55:19.480Z,8.10
2023-04-07T01:57:58.736Z,8.00
2023-04-07T02:00:26.201Z,8.10
2023-04-07T02:02:59.611Z,8.10
2023-04-07T02:05:30.698Z,8.00
2023-04-07T02:08:03.430Z,8.10
2023-04-07T02:10:37.203Z,8.10
2023-04-07T02:13:06.404Z,8.00
2023-04-07T02:15:34.270Z,8.00
2023-04-07T02:18:01.942Z,8.10
2023-04-07T02:20:30.677Z,8.10
2023-04-07T02:22:58.036Z,8.10
2023-04-07T02:25:27.475Z,8.10
2023-04-07T02:27:56.235Z,8.00
2023-04-07T02:30:24.638Z,8.00
2023-04-07T02:32:51.672Z,8.00
2023-04-07T02:35:20.727Z,8.00
2023-04-07T02:37:47.934Z,8.00
2023-04-07T02:40:16.040Z,8.00
2023-04-07T02:42:43.032Z,8.00
2023-04-07T02:45:11.485Z,7.90
2023-04-07T02:47:39.036Z,7.90
2023-04-07T02:50:07.008Z,7.90
2023-04-07T02:52:35.671Z,7.90
2023-04-07T02:55:07.533Z,7.90
2023-04-07T02:57:35.086Z,7.90
2023-04-07T03:00:05.953Z,7.90
2023-04-07T03:02:51.350Z,7.80
2023-04-07T03:05:19.644Z,7.90
2023-04-07T03:07:46.364Z,7.90
2023-04-07T03:10:13.947Z,7.80
2023-04-07T03:12:41.183Z,7.80
2023-04-07T03:15:08.389Z,7.80
2023-04-07T03:17:36.982Z,7.80
2023-04-07T03:20:05.716Z,7.80
2023-04-07T03:22:35.473Z,7.80
2023-04-07T03:25:02.597Z,7.80
2023-04-07T03:27:29.385Z,7.80
2023-04-07T03:29:57.628Z,7.70
2023-04-07T03:32:27.189Z,7.70
2023-04-07T03:34:53.854Z,7.70
2023-04-07T03:37:21.324Z,7.70
2023-04-07T03:39:49.859Z,7.70
2023-04-07T03:42:30.880Z,7.70
2023-04-07T03:45:02.271Z,7.70
2023-04-07T03:47:31.203Z,7.70
2023-04-07T03:50:01.436Z,7.70
2023-04-07T03:52:31.768Z,7.70
2023-04-07T03:55:07.146Z,7.70
2023-04-07T03:57:34.709Z,7.70
2023-04-07T04:00:02.815Z,7.70
2023-04-07T04:02:43.408Z,7.70
2023-04-07T04:05:14.500Z,7.60
2023-04-07T04:07:41.145Z,7.70
2023-04-07T04:10:09.072Z,7.60
2023-04-07T04:12:41.542Z,7.60
2023-04-07T04:15:11.385Z,7.60
2023-04-07T04:17:39.358Z,7.60
2023-04-07T04:20:08.765Z,7.60
2023-04-07T04:22:41.721Z,7.60
2023-04-07T04:25:09.598Z,7.60
2023-04-07T04:27:36.673Z,7.60
2023-04-07T04:30:09.998Z,7.60
2023-04-07T04:32:46.517Z,7.60
2023-04-07T04:35:16.215Z,7.60
2023-04-07T04:37:53.214Z,7.50
2023-04-07T04:40:21.009Z,7.50
2023-04-07T04:42:49.338Z,7.50
2023-04-07T04:45:17.987Z,7.50
2023-04-07T04:47:47.577Z,7.40
2023-04-07T04:50:14.898Z,7.50
2023-04-07T04:52:43.615Z,7.50
2023-04-07T04:55:18.742Z,7.50
2023-04-07T04:57:46.589Z,7.40
2023-04-07T05:00:18.734Z,7.40
2023-04-07T05:02:48.188Z,7.40
2023-04-07T05:05:15.979Z,7.40
2023-04-07T05:07:43.590Z,7.40
2023-04-07T05:10:13.581Z,7.40
2023-04-07T05:12:46.733Z,7.40
2023-04-07T05:15:15.490Z,7.40
2023-04-07T05:17:44.519Z,7.40
2023-04-07T05:20:14.196Z,7.40
2023-04-07T05:22:41.797Z,7.40
2023-04-07T05:25:12.859Z,7.40
2023-04-07T05:27:41.962Z,7.40
2023-04-07T05:30:14.418Z,7.40
2023-04-07T05:32:41.154Z,7.40
2023-04-07T05:35:17.436Z,7.40
2023-04-07T05:37:50.551Z,7.40
2023-04-07T05:40:18.508Z,7.40
2023-04-07T05:42:45.932Z,7.40
2023-04-07T05:45:13.915Z,7.40
2023-04-07T05:47:47.069Z,7.40
2023-04-07T05:50:15.010Z,7.40
2023-04-07T05:52:44.666Z,7.50
2023-04-07T05:55:21.696Z,7.50
2023-04-07T05:57:49.330Z,7.50
2023-04-07T06:00:20.370Z,7.50
2023-04-07T06:02:56.529Z,7.50
2023-04-07T06:05:24.622Z,7.50
2023-04-07T06:07:54.363Z,7.50
2023-04-07T06:10:22.529Z,7.60
2023-04-07T06:12:49.121Z,7.60
2023-04-07T06:15:16.415Z,7.60
2023-04-07T06:17:45.473Z,7.60
2023-04-07T06:20:13.996Z,7.60
2023-04-07T06:22:40.820Z,7.70
2023-04-07T06:25:08.495Z,7.60
2023-04-07T06:27:35.983Z,7.70
2023-04-07T06:30:03.550Z,7.70
2023-04-07T06:32:30.190Z,7.70
2023-04-07T06:34:57.767Z,7.70
2023-04-07T06:37:25.890Z,7.70
2023-04-07T06:39:54.542Z,7.70
2023-04-07T06:42:21.193Z,7.70
2023-04-07T06:44:58.071Z,7.80
2023-04-07T06:47:24.883Z,7.80
2023-04-07T06:49:52.171Z,7.90
2023-04-07T06:52:18.747Z,7.90
2023-04-07T06:54:46.137Z,7.90
2023-04-07T06:57:12.890Z,8.00
2023-04-07T06:59:40.139Z,8.00
2023-04-07T07:02:07.870Z,8.10
2023-04-07T07:04:35.717Z,8.10
2023-04-07T07:07:03.248Z,8.10
2023-04-07T07:09:30.181Z,8.10
2023-04-07T07:11:57.491Z,8.20
2023-04-07T07:14:24.774Z,8.20
2023-04-07T07:16:51.404Z,8.20
2023-04-07T07:19:18.648Z,8.20
2023-04-07T07:21:45.595Z,8.20
2023-04-07T07:24:13.155Z,8.20
2023-04-07T07:26:43.445Z,8.20
2023-04-07T07:29:11.468Z,8.30
2023-04-07T07:31:38.211Z,8.30
2023-04-07T07:34:05.524Z,8.30
2023-04-07T07:36:32.236Z,8.30
2023-04-07T07:38:59.532Z,8.40
2023-04-07T07:41:26.334Z,8.40
2023-04-07T07:43:53.615Z,8.50
2023-04-07T07:46:20.308Z,8.50
2023-04-07T07:48:47.672Z,8.60
2023-04-07T07:51:14.314Z,8.50
2023-04-07T07:53:41.495Z,8.50
2023-04-07T07:56:08.104Z,8.60
2023-04-07T07:58:35.485Z,8.60
2023-04-07T08:01:02.224Z,8.60
2023-04-07T08:03:29.574Z,8.60
2023-04-07T08:05:56.388Z,8.60
2023-04-07T08:08:23.730Z,8.60
2023-04-07T08:10:50.558Z,8.50
2023-04-07T08:13:17.484Z,8.50
2023-04-07T08:15:44.093Z,8.40
2023-04-07T08:18:11.152Z,8.40
2023-04-07T08:20:37.802Z,8.30
2023-04-07T08:23:05.349Z,8.30
2023-04-07T08:25:31.986Z,8.30
2023-04-07T08:27:59.278Z,8.20
2023-04-07T08:30:25.927Z,8.30
2023-04-07T08:32:53.196Z,8.30
2023-04-07T08:35:19.938Z,8.40
2023-04-07T08:37:47.672Z,8.40
2023-04-07T08:40:14.306Z,8.40
2023-04-07T08:42:45.528Z,8.40
2023-04-07T08:45:13.717Z,8.40
2023-04-07T08:47:44.290Z,8.50
2023-04-07T08:50:11.938Z,8.50
2023-04-07T08:52:53.514Z,8.50
2023-04-07T08:55:20.693Z,8.60
2023-04-07T08:57:48.578Z,8.60
2023-04-07T09:00:15.877Z,8.60
2023-04-07T09:02:49.164Z,8.70
2023-04-07T09:05:15.936Z,8.70
2023-04-07T09:07:43.522Z,8.80
2023-04-07T09:10:10.591Z,8.80
2023-04-07T09:12:38.603Z,8.80
2023-04-07T09:15:08.778Z,8.90
2023-04-07T09:17:36.386Z,9.00
2023-04-07T09:20:04.436Z,9.00
2023-04-07T09:22:43.174Z,9.00
2023-04-07T09:25:25.993Z,9.10
2023-04-07T09:28:01.733Z,9.10
2023-04-07T09:30:30.009Z,9.10
2023-04-07T09:32:58.299Z,9.10
2023-04-07T09:35:25.474Z,9.10
2023-04-07T09:38:07.211Z,9.10
2023-04-07T09:40:34.602Z,9.00
2023-04-07T09:43:03.181Z,8.90
2023-04-07T09:45:36.963Z,8.80
2023-04-07T09:48:18.199Z,8.70
2023-04-07T09:50:49.217Z,8.60
2023-04-07T09:53:17.331Z,8.60
2023-04-07T09:55:44.886Z,8.60
2023-04-07T09:58:14.091Z,8.60
2023-04-07T10:00:42.138Z,8.60
2023-04-07T10:03:09.811Z,8.60
2023-04-07T10:05:36.918Z,8.70
2023-04-07T10:08:06.959Z,8.90
2023-04-07T10:10:35.194Z,9.00
2023-04-07T10:13:06.367Z,9.20
2023-04-07T10:15:33.608Z,9.20
2023-04-07T10:18:01.491Z,9.20
2023-04-07T10:20:29.238Z,9.20
2023-04-07T10:23:04.333Z,9.30
2023-04-07T10:25:31.396Z,9.30
2023-04-07T10:28:06.885Z,9.30
2023-04-07T10:30:34.988Z,9.40
2023-04-07T10:33:02.755Z,9.50
2023-04-07T10:36:06.140Z,9.60
2023-04-07T10:38:33.871Z,9.60
2023-04-07T10:41:00.593Z,9.60
2023-04-07T10:43:40.076Z,9.60
2023-04-07T10:46:06.886Z,9.60
2023-04-07T10:48:34.229Z,9.60
2023-04-07T10:51:07.759Z,9.60
2023-04-07T10:53:35.367Z,9.60
2023-04-07T10:56:02.568Z,9.70
2023-04-07T10:58:33.541Z,9.70
2023-04-07T11:01:03.417Z,9.70
2023-04-07T11:03:34.262Z,9.70
2023-04-07T11:06:12.237Z,9.70
2023-04-07T11:08:49.174Z,9.70
2023-04-07T11:11:21.009Z,9.80
2023-04-07T11:13:50.162Z,9.80
2023-04-07T11:16:18.880Z,9.90
2023-04-07T11:18:48.256Z,10.00
2023-04-07T11:21:18.973Z,10.10
2023-04-07T11:23:48.391Z,10.20
2023-04-07T11:26:16.234Z,10.30
2023-04-07T11:28:47.026Z,10.40
2023-04-07T11:31:26.070Z,10.50
2023-04-07T11:34:00.661Z,10.50
2023-04-07T11:36:41.892Z,10.50
2023-04-07T11:39:22.037Z,10.60
2023-04-07T11:41:50.811Z,10.50
2023-04-07T11:44:17.509Z,10.50
2023-04-07T11:46:55.206Z,10.40
2023-04-07T11:49:23.755Z,10.30
2023-04-07T11:52:03.366Z,10.20
2023-04-07T11:54:47.003Z,10.20
2023-04-07T11:57:14.863Z,10.10
2023-04-07T11:59:42.048Z,10.10
2023-04-07T12:02:10.052Z,10.30
2023-04-07T12:04:39.718Z,10.40
2023-04-07T12:07:11.728Z,10.50
2023-04-07T12:09:38.773Z,10.60
2023-04-07T12:12:08.105Z,10.70
2023-04-07T12:14:35.979Z,10.70
2023-04-07T12:17:04.408Z,10.70
2023-04-07T12:19:33.505Z,10.70
2023-04-07T12:22:00.881Z,10.70
2023-04-07T12:24:28.534Z,10.70
2023-04-07T12:26:56.398Z,10.60
2023-04-07T12:29:23.115Z,10.60
2023-04-07T12:31:51.481Z,10.60
2023-04-07T12:34:18.697Z,10.60
2023-04-07T12:36:46.047Z,10.50
2023-04-07T12:39:12.778Z,10.40
2023-04-07T12:41:40.324Z,10.30
2023-04-07T12:44:07.162Z,10.20
2023-04-07T12:46:34.553Z,10.20
2023-04-07T12:49:01.239Z,10.10
2023-04-07T12:51:28.847Z,10.10
2023-04-07T12:53:55.631Z,10.10
2023-04-07T12:56:22.938Z,10.10
2023-04-07T12:58:49.644Z,10.10
2023-04-07T13:01:17.208Z,10.20
2023-04-07T13:03:44.257Z,10.20
2023-04-07T13:06:11.960Z,10.20
2023-04-07T13:08:39.432Z,10.20
2023-04-07T13:11:07.261Z,10.20
2023-04-07T13:13:34.206Z,10.20
2023-04-07T13:16:02.116Z,10.20
2023-04-07T13:18:28.764Z,10.30
2023-04-07T13:21:19.835Z,10.30
2023-04-07T13:23:44.051Z,10.20
2023-04-07T13:26:20.863Z,10.10
2023-04-07T13:28:48.511Z,10.00
2023-04-07T13:31:16.539Z,9.90
2023-04-07T13:33:43.517Z,9.90
2023-04-07T13:36:11.065Z,9.90
2023-04-07T13:38:37.798Z,9.80
2023-04-07T13:41:05.092Z,9.80
2023-04-07T13:43:31.670Z,9.70
2023-04-07T13:45:59.035Z,9.70
2023-04-07T13:48:25.783Z,9.70
2023-04-07T13:50:53.119Z,9.70
2023-04-07T13:53:20.129Z,9.80
2023-04-07T13:55:47.455Z,9.90
2023-04-07T13:58:14.205Z,10.00
2023-04-07T14:00:41.736Z,10.10
2023-04-07T14:03:09.319Z,10.20
2023-04-07T14:05:36.808Z,10.30
2023-04-07T14:08:03.489Z,10.50
2023-04-07T14:10:30.804Z,10.50
2023-04-07T14:12:57.444Z,10.60
2023-04-07T14:15:24.821Z,10.70
2023-04-07T14:17:51.558Z,10.70
2023-04-07T14:20:18.832Z,10.70
2023-04-07T14:22:45.656Z,10.70
2023-04-07T14:25:12.983Z,10.80
2023-04-07T14:27:39.627Z,10.80
2023-04-07T14:30:07.496Z,10.80
2023-04-07T14:32:34.335Z,10.90
2023-04-07T14:35:02.759Z,10.90
2023-04-07T14:37:29.601Z,10.90
2023-04-07T14:42:29.532Z,10.80
2023-04-07T14:44:56.972Z,10.70
2023-04-07T14:47:23.581Z,10.60
2023-04-07T14:49:53.190Z,10.60
2023-04-07T14:52:21.578Z,10.70
2023-04-07T14:54:49.045Z,10.70
2023-04-07T14:57:16.391Z,10.70
2023-04-07T14:59:43.381Z,10.70
2023-04-07T15:02:10.742Z,10.80
2023-04-07T15:04:37.610Z,10.80
2023-04-07T15:07:05.548Z,10.80
2023-04-07T15:09:32.162Z,10.80
2023-04-07T15:12:00.631Z,10.90
2023-04-07T15:14:27.484Z,10.90
2023-04-07T15:16:54.970Z,10.80
2023-04-07T15:19:21.617Z,10.80
2023-04-07T15:21:49.046Z,10.80
2023-04-07T15:24:16.419Z,10.70
2023-04-07T15:26:44.118Z,10.60
2023-04-07T15:29:10.804Z,10.60
2023-04-07T15:31:38.142Z,10.50
2023-04-07T15:34:05.233Z,10.40
2023-04-07T15:36:32.572Z,10.30
2023-04-07T15:39:04.331Z,10.30
2023-04-07T15:41:31.766Z,10.20
2023-04-07T15:44:01.776Z,10.20
2023-04-07T15:46:29.341Z,10.20
2023-04-07T15:48:55.983Z,10.10
2023-04-07T15:51:23.470Z,10.10
2023-04-07T15:53:50.457Z,10.10
2023-04-07T15:56:17.825Z,10.10
2023-04-07T15:58:45.769Z,10.00
2023-04-07T16:01:13.240Z,10.00
2023-04-07T16:03:39.989Z,10.00
2023-04-07T16:06:07.376Z,10.00
2023-04-07T16:08:34.082Z,9.90
2023-04-07T16:11:01.337Z,9.90
2023-04-07T16:13:27.991Z,9.90
2023-04-07T16:15:58.600Z,9.90
2023-04-07T16:18:25.464Z,9.90
2023-04-07T16:20:52.812Z,9.90
2023-04-07T16:23:19.464Z,9.90
2023-04-07T16:25:46.681Z,9.90
2023-04-07T16:28:13.317Z,9.90
2023-04-07T16:30:40.668Z,9.80
2023-04-07T16:33:07.322Z,9.80
2023-04-07T16:35:34.734Z,9.70
2023-04-07T16:38:05.834Z,9.70
2023-04-07T16:40:33.782Z,9.70
2023-04-07T16:43:00.470Z,9.60
2023-04-07T16:45:27.752Z,9.60
2023-04-07T16:47:54.463Z,9.50
2023-04-07T16:50:22.097Z,9.50
2023-04-07T16:52:48.796Z,9.40
2023-04-07T16:55:16.128Z,9.40
2023-04-07T16:57:42.734Z,9.40
2023-04-07T17:00:10.666Z,9.30
2023-04-07T17:02:37.402Z,9.30
2023-04-07T17:05:05.137Z,9.20
2023-04-07T17:07:31.770Z,9.20
2023-04-07T17:09:59.185Z,9.20
2023-04-07T17:12:26.293Z,9.10
2023-04-07T17:14:53.554Z,9.10
2023-04-07T17:17:20.549Z,9.10
2023-04-07T17:19:47.758Z,9.00
2023-04-07T17:22:14.466Z,9.00
2023-04-07T17:24:41.734Z,9.00
2023-04-07T17:27:08.420Z,8.90
2023-04-07T17:29:35.705Z,8.90
2023-04-07T17:32:02.538Z,8.90
2023-04-07T17:34:29.956Z,8.80
2023-04-07T17:36:56.564Z,8.80
2023-04-07T17:39:23.843Z,8.90
2023-04-07T17:41:50.542Z,8.90
2023-04-07T17:44:17.973Z,8.80
2023-04-07T17:46:45.393Z,8.80
2023-04-07T17:49:12.908Z,8.80
2023-04-07T17:51:39.647Z,8.80
2023-04-07T17:54:07.248Z,8.70
2023-04-07T17:56:33.875Z,8.70
2023-04-07T17:59:01.587Z,8.70
2023-04-07T18:01:28.348Z,8.60
2023-04-07T18:03:55.754Z,8.60
2023-04-07T18:06:23.296Z,8.60
2023-04-07T18:08:50.665Z,8.60
2023-04-07T18:11:18.508Z,8.60
2023-04-07T18:13:45.766Z,8.60
2023-04-07T18:16:17.293Z,8.50
2023-04-07T18:18:46.698Z,8.50
2023-04-07T18:21:13.322Z,8.50
2023-04-07T18:23:40.538Z,8.40
2023-04-07T18:26:07.180Z,8.40
2023-04-07T18:28:34.951Z,8.30
2023-04-07T18:31:03.649Z,8.20
2023-04-07T18:33:33.242Z,8.20
2023-04-07T18:36:03.381Z,8.20
2023-04-07T18:38:30.979Z,8.10
2023-04-07T18:40:57.715Z,8.10
2023-04-07T18:43:26.312Z,8.00
2023-04-07T18:45:54.115Z,7.90
2023-04-07T18:48:21.550Z,7.90
2023-04-07T18:50:53.071Z,7.90
2023-04-07T18:53:21.479Z,7.80
2023-04-07T18:55:49.369Z,7.80
2023-04-07T18:58:16.256Z,7.80
2023-04-07T19:00:44.702Z,7.80
2023-04-07T19:03:11.941Z,7.80
2023-04-07T19:05:42.445Z,7.80
2023-04-07T19:08:09.668Z,7.80
2023-04-07T19:10:36.954Z,7.90
2023-04-07T19:13:04.480Z,7.90
2023-04-07T19:15:40.848Z,7.90
2023-04-07T19:18:10.482Z,7.90
2023-04-07T19:20:37.139Z,7.90
2023-04-07T19:23:04.041Z,7.90
2023-04-07T19:25:31.199Z,7.90
2023-04-07T19:27:59.008Z,7.90
2023-04-07T19:30:25.747Z,8.00
2023-04-07T19:32:52.852Z,8.00
2023-04-07T19:35:19.716Z,8.00
2023-04-07T19:37:47.963Z,8.00
2023-04-07T19:40:15.872Z,8.00
2023-04-07T19:42:42.542Z,8.00
2023-04-07T19:45:10.372Z,8.00
2023-04-07T19:47:37.618Z,8.00
2023-04-07T19:50:05.910Z,8.10
2023-04-07T19:52:32.962Z,8.10
2023-04-07T19:55:01.343Z,8.10
2023-04-07T19:57:28.860Z,8.00
2023-04-07T19:59:55.966Z,8.10
2023-04-07T20:02:22.920Z,8.10
2023-04-07T20:04:49.917Z,8.10
2023-04-07T20:07:16.655Z,8.10
2023-04-07T20:09:43.929Z,8.10
2023-04-07T20:12:10.753Z,8.10
2023-04-07T20:14:38.062Z,8.10
2023-04-07T20:17:04.756Z,8.00
2023-04-07T20:19:32.056Z,8.00
2023-04-07T20:21:58.638Z,8.10
2023-04-07T20:24:26.171Z,8.10
2023-04-07T20:26:52.761Z,8.00
2023-04-07T20:29:21.750Z,8.10
2023-04-07T20:31:48.880Z,8.10
2023-04-07T20:34:16.783Z,8.10
2023-04-07T20:36:43.607Z,8.10
2023-04-07T20:39:10.985Z,8.10
2023-04-07T20:41:37.684Z,8.10
2023-04-07T20:44:05.372Z,8.10
2023-04-07T20:46:33.312Z,8.10
2023-04-07T20:49:00.375Z,8.10
2023-04-07T20:51:27.150Z,8.10
2023-04-07T20:53:54.418Z,8.10
2023-04-07T20:56:21.617Z,8.10
2023-04-07T20:58:49.248Z,8.10
2023-04-07T21:01:16.036Z,8.10
2023-04-07T21:03:43.421Z,8.10
2023-04-07T21:06:10.050Z,8.10
2023-04-07T21:08:37.296Z,8.00
2023-04-07T21:11:03.924Z,8.00
2023-04-07T21:13:31.197Z,8.00
2023-04-07T21:15:59.177Z,8.00
2023-04-07T21:18:27.393Z,8.00
2023-04-07T21:20:56.643Z,8.00
2023-04-07T21:23:23.926Z,8.00
2023-04-07T21:25:50.523Z,8.00
2023-04-07T21:28:17.819Z,8.00
2023-04-07T21:30:44.514Z,7.90
2023-04-07T21:33:13.678Z,7.90
2023-04-07T21:35:40.414Z,7.90
2023-04-07T21:38:07.671Z,7.90
2023-04-07T21:40:34.259Z,7.90
2023-04-07T21:43:01.960Z,7.90
2023-04-07T21:45:29.472Z,7.90
2023-04-07T21:47:56.880Z,7.90
2023-04-07T21:50:23.916Z,7.90
2023-04-07T21:52:51.804Z,7.90
2023-04-07T21:55:18.737Z,7.80
2023-04-07T21:57:46.843Z,7.80
2023-04-07T22:00:14.401Z,7.80
2023-04-07T22:02:42.070Z,7.80
2023-04-07T22:05:09.827Z,7.90
2023-04-07T22:07:37.606Z,7.90
2023-04-07T22:10:04.661Z,7.80
2023-04-07T22:12:31.930Z,7.90
2023-04-07T22:14:58.549Z,7.90
2023-04-07T22:17:25.875Z,7.90
2023-04-07T22:19:52.498Z,7.80
2023-04-07T22:22:19.827Z,7.90
2023-04-07T22:24:46.437Z,7.90
2023-04-07T22:27:13.721Z,7.90
2023-04-07T22:29:40.349Z,7.90
2023-04-07T22:32:07.657Z,7.90
2023-04-07T22:34:34.283Z,7.90
2023-04-07T22:37:01.632Z,7.90
2023-04-07T22:39:28.209Z,7.90
2023-04-07T22:41:55.447Z,7.90
2023-04-07T22:44:22.137Z,7.90
2023-04-07T22:46:49.365Z,7.90
2023-04-07T22:49:16.573Z,7.90
2023-04-07T22:51:48.518Z,7.80
2023-04-07T22:54:18.126Z,7.90
2023-04-07T22:56:45.452Z,7.90
2023-04-07T22:59:12.086Z,7.80
2023-04-07T23:01:39.596Z,7.80
2023-04-07T23:04:06.252Z,7.80
2023-04-07T23:06:33.658Z,7.80
2023-04-07T23:09:00.513Z,7.80
2023-04-07T23:11:27.794Z,7.80
2023-04-07T23:13:54.435Z,7.70
2023-04-07T23:16:21.772Z,7.80
2023-04-07T23:18:48.740Z,7.80
2023-04-07T23:21:16.315Z,7.80
2023-04-07T23:23:43.292Z,7.80
2023-04-07T23:26:10.550Z,7.70
2023-04-07T23:28:37.172Z,7.80
2023-04-07T23:31:06.868Z,7.80
2023-04-07T23:33:33.899Z,7.70
2023-04-07T23:36:01.511Z,7.70
2023-04-07T23:38:28.150Z,7.80
2023-04-07T23:40:55.392Z,7.80
2023-04-07T23:43:22.084Z,7.80
2023-04-07T23:45:49.522Z,7.80
2023-04-07T23:48:16.304Z,7.80
2023-04-07T23:50:43.655Z,7.70
2023-04-07T23:53:10.308Z,7.80
2023-04-07T23:55:37.553Z,7.70
2023-04-07T23:58:04.270Z,7.70
